Terminal Aerodrome Forecast
Issued by NWS Sioux Falls, SD

Home | Current Version | Previous Version | Text Only | Print | Product List | Glossary Off
Versions: 1 2 3 4 5 6 7 8 9 10 11 12 13 14

582
FTUS43 KFSD 251729
TAFHON
TAF
KHON 251729Z 2518/2618 31022G30KT P6SM OVC045
     FM252000 31021G29KT P6SM SCT050
     FM260000 30012KT P6SM SKC
     FM260200 28008KT P6SM SKC
     FM261600 31014KT P6SM SKC=

USA.gov is the U.S. government's official web portal to all federal, state and local government web resources and services.